Terminal Aerodrome Forecast
Issued by NWS

Home | Current Version | Previous Version | Graphics & Text | Print | Product List | Glossary On
Versions: 1 2 3 4 5 6 7 8 9 10 11
486
FTUS43 KIWX 230521
TAFSBN
TAF
KSBN 230521Z 2306/2406 02005KT P6SM SKC
     FM231600 34008KT P6SM SKC
     FM240000 01003KT P6SM SKC=

USA.gov is the U.S. government's official web portal to all federal, state and local government web resources and services.